createdAt,value
2023-04-24T00:00:27.325Z,14.70
2023-04-24T00:05:31.626Z,14.70
2023-04-24T00:10:34.741Z,14.70
2023-04-24T00:15:37.683Z,14.70
2023-04-24T00:20:41.910Z,14.70
2023-04-24T00:25:44.829Z,14.70
2023-04-24T00:30:47.760Z,14.70
2023-04-24T00:35:51.968Z,14.80
2023-04-24T00:40:55.697Z,14.70
2023-04-24T00:46:00.611Z,14.60
2023-04-24T00:51:05.339Z,14.70
2023-04-24T00:56:08.340Z,14.70
2023-04-24T01:01:12.746Z,14.70
2023-04-24T01:06:17.770Z,14.60
2023-04-24T01:11:20.969Z,14.50
2023-04-24T01:16:23.961Z,14.60
2023-04-24T01:21:31.423Z,14.60
2023-04-24T01:26:35.933Z,14.70
2023-04-24T01:31:38.925Z,14.50
2023-04-24T01:36:43.611Z,14.50
2023-04-24T01:41:48.194Z,14.30
2023-04-24T01:46:51.525Z,14.30
2023-04-24T01:51:54.825Z,14.30
2023-04-24T01:56:59.659Z,14.30
2023-04-24T02:02:03.519Z,14.30
2023-04-24T02:07:06.405Z,14.30
2023-04-24T02:12:11.501Z,14.30
2023-04-24T02:17:16.491Z,14.30
2023-04-24T02:22:19.395Z,14.20
2023-04-24T02:27:23.677Z,14.20
2023-04-24T02:32:26.652Z,14.30
2023-04-24T02:37:29.528Z,14.20
2023-04-24T02:42:33.739Z,14.20
2023-04-24T02:47:36.669Z,14.20
2023-04-24T02:52:39.671Z,14.00
2023-04-24T02:57:43.869Z,14.10
2023-04-24T03:02:47.116Z,14.10
2023-04-24T03:07:58.032Z,14.10
2023-04-24T03:13:02.200Z,14.10
2023-04-24T03:18:05.217Z,14.00
2023-04-24T03:23:08.152Z,13.60
2023-04-24T03:28:13.436Z,13.60
2023-04-24T03:33:23.877Z,13.30
2023-04-24T03:38:36.959Z,12.90
2023-04-24T03:44:13.482Z,12.40
2023-04-24T03:49:17.413Z,12.70
2023-04-24T03:54:23.452Z,13.00
2023-04-24T03:59:29.356Z,13.00
2023-04-24T04:04:47.703Z,13.10
2023-04-24T04:09:50.903Z,13.30
2023-04-24T04:14:55.113Z,13.20
2023-04-24T04:19:58.318Z,13.20
2023-04-24T04:25:01.376Z,13.20
2023-04-24T04:30:10.688Z,13.30
2023-04-24T04:35:23.364Z,13.30
2023-04-24T04:40:28.936Z,13.20
2023-04-24T04:45:41.187Z,13.10
2023-04-24T04:51:12.481Z,13.20
2023-04-24T04:56:16.096Z,13.20
2023-04-24T05:01:25.097Z,13.20
2023-04-24T05:06:28.625Z,13.20
2023-04-24T05:11:31.963Z,13.20
2023-04-24T05:16:38.860Z,13.20
2023-04-24T05:21:43.362Z,13.30
2023-04-24T05:26:47.972Z,13.40
2023-04-24T05:31:55.193Z,13.40
2023-04-24T05:36:59.227Z,13.30
2023-04-24T05:42:02.741Z,13.40
2023-04-24T05:47:07.008Z,13.10
2023-04-24T05:52:10.333Z,13.10
2023-04-24T05:57:15.069Z,13.10
2023-04-24T06:02:36.245Z,13.10
2023-04-24T06:07:39.510Z,13.00
2023-04-24T06:12:45.833Z,12.90
2023-04-24T06:17:54.614Z,12.90
2023-04-24T06:22:57.776Z,12.90
2023-04-24T06:28:00.821Z,12.80
2023-04-24T06:33:18.860Z,12.70
2023-04-24T06:38:22.767Z,12.80
2023-04-24T06:43:25.663Z,12.70
2023-04-24T06:48:29.881Z,12.60
2023-04-24T06:53:32.718Z,12.70
2023-04-24T06:58:35.641Z,12.90
2023-04-24T07:03:40.227Z,12.90
2023-04-24T07:08:44.656Z,12.80
2023-04-24T07:13:47.517Z,12.90
2023-04-24T07:18:52.448Z,12.90
2023-04-24T07:23:55.355Z,13.00
2023-04-24T07:28:58.314Z,13.00
2023-04-24T07:34:02.713Z,13.00
2023-04-24T07:39:05.720Z,13.10
2023-04-24T07:44:08.680Z,13.00
2023-04-24T07:49:14.168Z,12.90
2023-04-24T07:54:17.629Z,12.70
2023-04-24T07:59:20.453Z,12.60
2023-04-24T08:04:24.770Z,12.50
2023-04-24T08:09:27.860Z,12.50
2023-04-24T08:14:30.759Z,12.60
2023-04-24T08:19:34.925Z,12.60
2023-04-24T08:24:38.423Z,12.50
2023-04-24T08:29:41.375Z,12.40
2023-04-24T08:34:46.796Z,12.60
2023-04-24T08:39:51.627Z,12.50
2023-04-24T08:44:54.504Z,12.30
2023-04-24T08:50:00.613Z,12.40
2023-04-24T08:55:03.810Z,12.40
2023-04-24T09:00:11.868Z,12.40
2023-04-24T09:05:18.618Z,12.60
2023-04-24T09:10:22.239Z,12.70
2023-04-24T09:15:26.686Z,12.80
2023-04-24T09:20:31.207Z,12.80
2023-04-24T09:25:36.712Z,13.00
2023-04-24T09:30:39.556Z,12.80
2023-04-24T09:35:45.040Z,12.90
2023-04-24T09:40:47.945Z,12.90
2023-04-24T09:45:50.827Z,12.70
2023-04-24T09:50:55.825Z,12.80
2023-04-24T09:56:05.096Z,12.80
2023-04-24T10:01:08.165Z,13.00
2023-04-24T10:06:14.824Z,13.00
2023-04-24T10:11:18.147Z,13.00
2023-04-24T10:16:23.313Z,12.80
2023-04-24T10:21:28.783Z,12.70
2023-04-24T10:26:31.850Z,12.60
2023-04-24T10:31:35.102Z,12.70
2023-04-24T10:36:45.228Z,12.90
2023-04-24T10:41:50.425Z,12.80
2023-04-24T10:46:56.764Z,13.00
2023-04-24T10:52:06.290Z,12.90
2023-04-24T10:57:30.917Z,12.80
2023-04-24T11:02:39.241Z,12.80
2023-04-24T11:08:13.487Z,13.40
2023-04-24T11:13:18.243Z,13.30
2023-04-24T11:18:21.374Z,13.50
2023-04-24T11:23:25.613Z,13.50
2023-04-24T11:28:30.375Z,13.30
2023-04-24T11:33:33.822Z,13.30
2023-04-24T11:38:38.112Z,13.50
2023-04-24T11:43:41.836Z,13.40
2023-04-24T11:48:47.637Z,13.40
2023-04-24T11:53:57.869Z,13.20
2023-04-24T11:59:06.310Z,13.00
2023-04-24T12:04:09.308Z,13.20
2023-04-24T12:09:18.467Z,13.00
2023-04-24T12:14:21.680Z,12.90
2023-04-24T12:19:26.528Z,12.90
2023-04-24T12:24:31.693Z,13.10
2023-04-24T12:29:34.550Z,13.20
2023-04-24T12:34:37.842Z,13.20
2023-04-24T12:39:59.621Z,13.10
2023-04-24T12:45:05.017Z,13.00
2023-04-24T12:50:09.029Z,13.00
2023-04-24T12:55:14.127Z,12.80
2023-04-24T13:00:20.015Z,12.90
2023-04-24T13:05:25.182Z,13.00
2023-04-24T13:10:29.885Z,13.10
2023-04-24T13:15:32.759Z,13.30
2023-04-24T13:20:36.475Z,13.40
2023-04-24T13:25:40.743Z,13.60
2023-04-24T13:30:43.659Z,13.60
2023-04-24T13:35:46.524Z,13.60
2023-04-24T13:40:50.928Z,13.70
2023-04-24T13:45:53.897Z,13.60
2023-04-24T13:50:56.789Z,13.50
2023-04-24T13:56:00.976Z,13.60
2023-04-24T14:01:04.338Z,13.60
2023-04-24T14:06:08.178Z,13.70
2023-04-24T14:11:12.974Z,13.70
2023-04-24T14:16:16.840Z,13.70
2023-04-24T14:21:19.741Z,13.90
2023-04-24T14:26:25.547Z,13.80
2023-04-24T14:31:28.473Z,14.10
2023-04-24T14:36:31.457Z,14.20
2023-04-24T14:41:36.830Z,14.10
2023-04-24T14:46:40.173Z,14.20
2023-04-24T14:51:43.648Z,14.30
2023-04-24T14:56:47.836Z,14.50
2023-04-24T15:02:14.581Z,14.40
2023-04-24T15:07:18.768Z,14.20
2023-04-24T15:12:23.562Z,14.20
2023-04-24T15:17:26.444Z,14.00
2023-04-24T15:22:29.337Z,14.00
2023-04-24T15:27:43.210Z,13.90
2023-04-24T15:32:47.149Z,14.20
2023-04-24T15:37:50.141Z,14.60
2023-04-24T15:42:54.351Z,15.00
2023-04-24T15:47:57.666Z,15.10
2023-04-24T15:53:01.593Z,15.30
2023-04-24T15:58:06.071Z,15.40
2023-04-24T16:03:10.179Z,15.60
2023-04-24T16:08:14.217Z,15.70
2023-04-24T16:13:20.913Z,15.60
2023-04-24T16:18:23.753Z,15.50
2023-04-24T16:23:26.616Z,15.50
2023-04-24T16:28:32.080Z,15.40
2023-04-24T16:33:42.270Z,15.40
2023-04-24T16:38:45.247Z,15.40
2023-04-24T16:43:49.535Z,15.30
2023-04-24T16:48:52.428Z,15.40
2023-04-24T16:53:57.384Z,15.50
2023-04-24T16:59:01.581Z,15.50
2023-04-24T17:04:04.601Z,15.40
2023-04-24T17:09:07.756Z,15.20
2023-04-24T17:14:12.066Z,14.90
2023-04-24T17:19:15.113Z,14.70
2023-04-24T17:24:18.052Z,14.60
2023-04-24T17:29:22.336Z,14.90
2023-04-24T17:34:25.436Z,15.20
2023-04-24T17:39:28.819Z,15.20
2023-04-24T17:44:33.285Z,15.20
2023-04-24T17:49:38.483Z,15.10
2023-04-24T17:54:41.445Z,15.00
2023-04-24T17:59:45.633Z,15.10
2023-04-24T18:04:48.845Z,15.00
2023-04-24T18:09:52.985Z,15.00
2023-04-24T18:15:12.826Z,15.00
2023-04-24T18:20:19.030Z,14.80
2023-04-24T18:25:26.588Z,14.60
2023-04-24T18:30:32.495Z,14.80
2023-04-24T18:35:35.373Z,14.80
2023-04-24T18:40:38.533Z,14.70
2023-04-24T18:45:42.715Z,14.50
2023-04-24T18:50:45.672Z,14.50
2023-04-24T18:55:48.543Z,14.30
2023-04-24T19:00:52.868Z,14.30
2023-04-24T19:05:55.779Z,14.20
2023-04-24T19:10:58.702Z,14.10
2023-04-24T19:16:02.937Z,14.10
2023-04-24T19:21:05.953Z,14.20
2023-04-24T19:26:08.863Z,14.20
2023-04-24T19:31:13.330Z,14.20
2023-04-24T19:36:17.691Z,14.10
2023-04-24T19:41:20.682Z,14.10
2023-04-24T19:46:25.398Z,14.00
2023-04-24T19:51:28.522Z,14.10
2023-04-24T19:56:31.870Z,14.00
2023-04-24T20:01:36.448Z,14.00
2023-04-24T20:06:40.252Z,14.10
2023-04-24T20:11:43.219Z,14.10
2023-04-24T20:16:47.447Z,14.10
2023-04-24T20:21:50.832Z,14.10
2023-04-24T20:26:53.679Z,14.20
2023-04-24T20:31:58.115Z,14.10
2023-04-24T20:37:00.993Z,14.20
2023-04-24T20:42:03.906Z,14.20
2023-04-24T20:47:08.261Z,14.00
2023-04-24T20:52:11.255Z,14.00
2023-04-24T20:57:14.238Z,14.00
2023-04-24T21:02:18.729Z,13.90
2023-04-24T21:07:21.740Z,13.90
2023-04-24T21:12:24.697Z,13.80
2023-04-24T21:17:28.990Z,13.80
2023-04-24T21:22:31.961Z,13.90
2023-04-24T21:27:35.048Z,13.70
2023-04-24T21:32:40.485Z,13.70
2023-04-24T21:37:43.579Z,13.70
2023-04-24T21:42:46.438Z,13.60
2023-04-24T21:47:50.678Z,13.50
2023-04-24T21:52:53.652Z,13.40
2023-04-24T21:57:56.911Z,13.40
2023-04-24T22:03:01.419Z,13.40
2023-04-24T22:08:05.470Z,13.40
2023-04-24T22:13:08.344Z,13.30
2023-04-24T22:18:13.364Z,13.40
2023-04-24T22:23:16.399Z,13.30
2023-04-24T22:28:21.294Z,13.30
2023-04-24T22:33:25.602Z,13.40
2023-04-24T22:38:28.478Z,13.50
2023-04-24T22:43:31.933Z,13.50
2023-04-24T22:48:36.298Z,13.50
2023-04-24T22:53:39.244Z,13.40
2023-04-24T22:58:42.140Z,13.50
2023-04-24T23:03:46.536Z,13.30
2023-04-24T23:08:57.785Z,13.40
2023-04-24T23:14:00.639Z,13.30
2023-04-24T23:19:04.978Z,13.20
2023-04-24T23:24:08.348Z,13.30
2023-04-24T23:29:11.212Z,13.30
2023-04-24T23:34:18.184Z,13.30
2023-04-24T23:39:21.058Z,13.20
2023-04-24T23:44:23.924Z,13.20
2023-04-24T23:49:28.208Z,13.10
2023-04-24T23:54:31.412Z,13.10
2023-04-24T23:59:34.586Z,13.10
